sensor_id;sensor_type;location;lat;lon;timestamp;temperature;humidity
12180;DHT22;6153;51.490;6.586;2022-08-03T00:02:09;20.30;99.90
12180;DHT22;6153;51.490;6.586;2022-08-03T00:05:09;20.30;99.90
12180;DHT22;6153;51.490;6.586;2022-08-03T00:08:10;20.00;99.90
12180;DHT22;6153;51.490;6.586;2022-08-03T00:11:10;20.00;99.90
12180;DHT22;6153;51.490;6.586;2022-08-03T00:14:11;20.10;99.90
12180;DHT22;6153;51.490;6.586;2022-08-03T00:17:12;20.10;99.90
12180;DHT22;6153;51.490;6.586;2022-08-03T00:20:12;20.10;99.90
12180;DHT22;6153;51.490;6.586;2022-08-03T00:23:13;19.90;99.90
12180;DHT22;6153;51.490;6.586;2022-08-03T00:26:14;19.90;99.90
12180;DHT22;6153;51.490;6.586;2022-08-03T00:29:14;19.90;99.90
12180;DHT22;6153;51.490;6.586;2022-08-03T00:32:15;19.90;99.90
12180;DHT22;6153;51.490;6.586;2022-08-03T00:35:15;20.00;99.90
12180;DHT22;6153;51.490;6.586;2022-08-03T00:38:16;20.10;99.90
12180;DHT22;6153;51.490;6.586;2022-08-03T00:41:16;19.70;99.90
12180;DHT22;6153;51.490;6.586;2022-08-03T00:44:17;19.50;99.90
12180;DHT22;6153;51.490;6.586;2022-08-03T00:47:17;19.30;99.90
12180;DHT22;6153;51.490;6.586;2022-08-03T00:50:18;19.50;99.90
12180;DHT22;6153;51.490;6.586;2022-08-03T00:53:19;19.40;99.90
12180;DHT22;6153;51.490;6.586;2022-08-03T00:56:20;19.50;99.90
12180;DHT22;6153;51.490;6.586;2022-08-03T00:59:20;19.50;99.90
12180;DHT22;6153;51.490;6.586;2022-08-03T01:02:21;19.40;99.90
12180;DHT22;6153;51.490;6.586;2022-08-03T01:05:22;19.50;99.90
12180;DHT22;6153;51.490;6.586;2022-08-03T01:11:28;19.50;99.90
12180;DHT22;6153;51.490;6.586;2022-08-03T01:14:34;19.30;99.90
12180;DHT22;6153;51.490;6.586;2022-08-03T01:20:44;19.30;99.90
12180;DHT22;6153;51.490;6.586;2022-08-03T01:30:09;19.30;99.90
12180;DHT22;6153;51.490;6.586;2022-08-03T01:36:17;19.40;99.90
12180;DHT22;6153;51.490;6.586;2022-08-03T01:39:19;19.30;99.90
12180;DHT22;6153;51.490;6.586;2022-08-03T01:42:20;19.20;99.90
12180;DHT22;6153;51.490;6.586;2022-08-03T01:45:21;19.30;99.90
12180;DHT22;6153;51.490;6.586;2022-08-03T01:48:21;19.30;99.90
12180;DHT22;6153;51.490;6.586;2022-08-03T01:51:22;19.20;99.90
12180;DHT22;6153;51.490;6.586;2022-08-03T01:54:22;19.00;99.90
12180;DHT22;6153;51.490;6.586;2022-08-03T01:57:24;18.70;99.90
12180;DHT22;6153;51.490;6.586;2022-08-03T02:00:27;18.60;99.90
12180;DHT22;6153;51.490;6.586;2022-08-03T02:03:28;18.70;99.90
12180;DHT22;6153;51.490;6.586;2022-08-03T02:06:29;18.80;99.90
12180;DHT22;6153;51.490;6.586;2022-08-03T02:09:31;18.90;99.90
12180;DHT22;6153;51.490;6.586;2022-08-03T02:12:32;19.00;99.90
12180;DHT22;6153;51.490;6.586;2022-08-03T02:15:34;19.10;99.90
12180;DHT22;6153;51.490;6.586;2022-08-03T02:18:36;19.00;99.90
12180;DHT22;6153;51.490;6.586;2022-08-03T02:21:38;19.00;99.90
12180;DHT22;6153;51.490;6.586;2022-08-03T02:24:40;18.90;99.90
12180;DHT22;6153;51.490;6.586;2022-08-03T02:27:49;18.90;99.90
12180;DHT22;6153;51.490;6.586;2022-08-03T02:30:53;18.70;99.90
12180;DHT22;6153;51.490;6.586;2022-08-03T02:33:56;18.60;99.90
12180;DHT22;6153;51.490;6.586;2022-08-03T02:36:58;18.50;99.90
12180;DHT22;6153;51.490;6.586;2022-08-03T02:40:03;18.60;99.90
12180;DHT22;6153;51.490;6.586;2022-08-03T02:43:05;18.70;99.90
12180;DHT22;6153;51.490;6.586;2022-08-03T02:46:06;18.80;99.90
12180;DHT22;6153;51.490;6.586;2022-08-03T02:49:09;18.80;99.90
12180;DHT22;6153;51.490;6.586;2022-08-03T02:52:11;18.80;99.90
12180;DHT22;6153;51.490;6.586;2022-08-03T02:55:12;18.60;99.90
12180;DHT22;6153;51.490;6.586;2022-08-03T02:58:13;18.40;99.90
12180;DHT22;6153;51.490;6.586;2022-08-03T03:01:13;18.50;99.90
12180;DHT22;6153;51.490;6.586;2022-08-03T03:04:15;18.60;99.90
12180;DHT22;6153;51.490;6.586;2022-08-03T03:07:15;18.70;99.90
12180;DHT22;6153;51.490;6.586;2022-08-03T03:10:17;18.70;99.90
12180;DHT22;6153;51.490;6.586;2022-08-03T03:13:18;18.70;99.90
12180;DHT22;6153;51.490;6.586;2022-08-03T03:16:18;18.70;99.90
12180;DHT22;6153;51.490;6.586;2022-08-03T03:19:19;18.70;99.90
12180;DHT22;6153;51.490;6.586;2022-08-03T03:22:20;18.70;99.90
12180;DHT22;6153;51.490;6.586;2022-08-03T03:25:22;18.70;99.90
12180;DHT22;6153;51.490;6.586;2022-08-03T03:28:23;18.70;99.90
12180;DHT22;6153;51.490;6.586;2022-08-03T03:31:24;18.60;99.90
12180;DHT22;6153;51.490;6.586;2022-08-03T03:34:24;18.60;99.90
12180;DHT22;6153;51.490;6.586;2022-08-03T03:37:25;18.60;99.90
12180;DHT22;6153;51.490;6.586;2022-08-03T03:40:26;18.60;99.90
12180;DHT22;6153;51.490;6.586;2022-08-03T03:43:27;18.60;99.90
12180;DHT22;6153;51.490;6.586;2022-08-03T03:46:28;18.60;99.90
12180;DHT22;6153;51.490;6.586;2022-08-03T03:49:29;18.70;99.90
12180;DHT22;6153;51.490;6.586;2022-08-03T03:52:30;18.70;99.90
12180;DHT22;6153;51.490;6.586;2022-08-03T03:55:31;18.80;99.90
12180;DHT22;6153;51.490;6.586;2022-08-03T03:58:32;18.70;99.90
12180;DHT22;6153;51.490;6.586;2022-08-03T04:01:32;18.70;99.90
12180;DHT22;6153;51.490;6.586;2022-08-03T04:04:33;18.60;99.90
12180;DHT22;6153;51.490;6.586;2022-08-03T04:08:08;18.60;99.90
12180;DHT22;6153;51.490;6.586;2022-08-03T04:14:32;18.60;99.90
12180;DHT22;6153;51.490;6.586;2022-08-03T04:17:34;18.70;99.90
12180;DHT22;6153;51.490;6.586;2022-08-03T04:20:35;18.70;99.90
12180;DHT22;6153;51.490;6.586;2022-08-03T04:23:38;18.80;99.90
12180;DHT22;6153;51.490;6.586;2022-08-03T04:26:40;18.80;99.90
12180;DHT22;6153;51.490;6.586;2022-08-03T04:29:42;18.80;99.90
12180;DHT22;6153;51.490;6.586;2022-08-03T04:32:44;18.80;99.90
12180;DHT22;6153;51.490;6.586;2022-08-03T04:35:51;18.70;99.90
12180;DHT22;6153;51.490;6.586;2022-08-03T04:38:58;18.80;99.90
12180;DHT22;6153;51.490;6.586;2022-08-03T04:42:03;18.90;99.90
12180;DHT22;6153;51.490;6.586;2022-08-03T04:45:04;18.90;99.90
12180;DHT22;6153;51.490;6.586;2022-08-03T04:48:05;19.00;99.90
12180;DHT22;6153;51.490;6.586;2022-08-03T04:51:06;19.10;99.90
12180;DHT22;6153;51.490;6.586;2022-08-03T04:54:11;19.20;99.90
12180;DHT22;6153;51.490;6.586;2022-08-03T04:57:11;19.30;99.90
12180;DHT22;6153;51.490;6.586;2022-08-03T05:00:12;19.40;99.90
12180;DHT22;6153;51.490;6.586;2022-08-03T05:03:13;19.50;99.90
12180;DHT22;6153;51.490;6.586;2022-08-03T05:06:13;19.60;99.90
12180;DHT22;6153;51.490;6.586;2022-08-03T05:09:14;19.70;99.90
12180;DHT22;6153;51.490;6.586;2022-08-03T05:12:14;19.70;99.90
12180;DHT22;6153;51.490;6.586;2022-08-03T05:15:15;19.90;99.90
12180;DHT22;6153;51.490;6.586;2022-08-03T05:18:15;19.90;99.90
12180;DHT22;6153;51.490;6.586;2022-08-03T05:21:16;20.00;99.90
12180;DHT22;6153;51.490;6.586;2022-08-03T05:24:16;20.10;99.90
12180;DHT22;6153;51.490;6.586;2022-08-03T05:27:17;20.20;99.90
12180;DHT22;6153;51.490;6.586;2022-08-03T05:30:21;20.30;99.90
12180;DHT22;6153;51.490;6.586;2022-08-03T05:33:21;20.40;99.90
12180;DHT22;6153;51.490;6.586;2022-08-03T05:36:22;20.50;99.90
12180;DHT22;6153;51.490;6.586;2022-08-03T05:39:22;20.60;99.90
12180;DHT22;6153;51.490;6.586;2022-08-03T05:42:23;20.70;99.90
12180;DHT22;6153;51.490;6.586;2022-08-03T05:45:23;20.80;99.90
12180;DHT22;6153;51.490;6.586;2022-08-03T05:48:24;20.90;99.90
12180;DHT22;6153;51.490;6.586;2022-08-03T05:51:24;21.00;99.90
12180;DHT22;6153;51.490;6.586;2022-08-03T05:54:25;21.10;99.90
12180;DHT22;6153;51.490;6.586;2022-08-03T05:57:26;21.20;99.90
12180;DHT22;6153;51.490;6.586;2022-08-03T06:00:27;21.40;99.90
12180;DHT22;6153;51.490;6.586;2022-08-03T06:03:27;21.50;99.90
12180;DHT22;6153;51.490;6.586;2022-08-03T06:06:28;21.70;99.90
12180;DHT22;6153;51.490;6.586;2022-08-03T06:09:28;21.70;99.90
12180;DHT22;6153;51.490;6.586;2022-08-03T06:12:29;21.90;99.90
12180;DHT22;6153;51.490;6.586;2022-08-03T06:15:29;22.10;99.90
12180;DHT22;6153;51.490;6.586;2022-08-03T06:18:32;22.30;99.90
12180;DHT22;6153;51.490;6.586;2022-08-03T06:21:33;22.50;99.90
12180;DHT22;6153;51.490;6.586;2022-08-03T06:24:33;22.50;99.90
12180;DHT22;6153;51.490;6.586;2022-08-03T06:27:34;22.70;99.90
12180;DHT22;6153;51.490;6.586;2022-08-03T06:30:37;22.80;99.90
12180;DHT22;6153;51.490;6.586;2022-08-03T06:33:37;23.00;99.90
12180;DHT22;6153;51.490;6.586;2022-08-03T06:36:38;23.10;99.90
12180;DHT22;6153;51.490;6.586;2022-08-03T06:39:38;23.20;99.90
12180;DHT22;6153;51.490;6.586;2022-08-03T06:42:39;23.20;99.90
12180;DHT22;6153;51.490;6.586;2022-08-03T06:45:40;23.20;99.90
12180;DHT22;6153;51.490;6.586;2022-08-03T06:48:41;23.30;99.90
12180;DHT22;6153;51.490;6.586;2022-08-03T06:51:42;23.50;99.90
12180;DHT22;6153;51.490;6.586;2022-08-03T06:54:42;23.60;99.90
12180;DHT22;6153;51.490;6.586;2022-08-03T06:57:43;23.70;99.90
12180;DHT22;6153;51.490;6.586;2022-08-03T07:00:43;23.90;99.90
12180;DHT22;6153;51.490;6.586;2022-08-03T07:03:44;24.10;99.90
12180;DHT22;6153;51.490;6.586;2022-08-03T07:06:45;24.20;99.90
12180;DHT22;6153;51.490;6.586;2022-08-03T07:09:45;24.20;99.90
12180;DHT22;6153;51.490;6.586;2022-08-03T07:12:47;24.40;99.90
12180;DHT22;6153;51.490;6.586;2022-08-03T07:15:47;24.40;99.90
12180;DHT22;6153;51.490;6.586;2022-08-03T07:18:48;24.40;99.90
12180;DHT22;6153;51.490;6.586;2022-08-03T07:21:51;24.50;99.90
12180;DHT22;6153;51.490;6.586;2022-08-03T07:24:51;24.70;99.90
12180;DHT22;6153;51.490;6.586;2022-08-03T07:27:52;25.00;99.90
12180;DHT22;6153;51.490;6.586;2022-08-03T07:30:52;25.20;99.90
12180;DHT22;6153;51.490;6.586;2022-08-03T07:33:53;25.20;99.90
12180;DHT22;6153;51.490;6.586;2022-08-03T07:36:53;25.20;99.90
12180;DHT22;6153;51.490;6.586;2022-08-03T07:39:54;25.30;99.90
12180;DHT22;6153;51.490;6.586;2022-08-03T07:42:55;25.40;99.90
12180;DHT22;6153;51.490;6.586;2022-08-03T07:45:55;25.70;99.90
12180;DHT22;6153;51.490;6.586;2022-08-03T07:48:56;25.80;99.90
12180;DHT22;6153;51.490;6.586;2022-08-03T07:51:56;26.10;99.90
12180;DHT22;6153;51.490;6.586;2022-08-03T07:55:16;26.20;99.90
12180;DHT22;6153;51.490;6.586;2022-08-03T07:58:17;26.20;99.90
12180;DHT22;6153;51.490;6.586;2022-08-03T08:01:18;26.20;99.90
12180;DHT22;6153;51.490;6.586;2022-08-03T08:04:33;26.40;99.90
12180;DHT22;6153;51.490;6.586;2022-08-03T08:07:34;26.50;99.90
12180;DHT22;6153;51.490;6.586;2022-08-03T08:10:35;26.80;99.90
12180;DHT22;6153;51.490;6.586;2022-08-03T08:13:35;26.80;99.90
12180;DHT22;6153;51.490;6.586;2022-08-03T08:16:39;27.00;99.90
12180;DHT22;6153;51.490;6.586;2022-08-03T08:19:39;27.10;99.90
12180;DHT22;6153;51.490;6.586;2022-08-03T08:22:40;27.10;99.90
12180;DHT22;6153;51.490;6.586;2022-08-03T08:25:41;27.40;99.90
12180;DHT22;6153;51.490;6.586;2022-08-03T08:28:41;27.30;99.90
12180;DHT22;6153;51.490;6.586;2022-08-03T08:31:42;27.60;99.90
12180;DHT22;6153;51.490;6.586;2022-08-03T08:34:42;27.60;99.90
12180;DHT22;6153;51.490;6.586;2022-08-03T08:37:43;27.70;99.90
12180;DHT22;6153;51.490;6.586;2022-08-03T08:40:44;27.70;99.90
12180;DHT22;6153;51.490;6.586;2022-08-03T08:43:44;28.00;99.90
12180;DHT22;6153;51.490;6.586;2022-08-03T08:46:45;28.20;99.90
12180;DHT22;6153;51.490;6.586;2022-08-03T08:49:47;27.90;99.90
12180;DHT22;6153;51.490;6.586;2022-08-03T08:52:48;28.10;99.90
12180;DHT22;6153;51.490;6.586;2022-08-03T08:55:49;28.30;99.90
12180;DHT22;6153;51.490;6.586;2022-08-03T08:58:50;28.60;99.90
12180;DHT22;6153;51.490;6.586;2022-08-03T09:01:55;28.80;99.90
12180;DHT22;6153;51.490;6.586;2022-08-03T09:04:56;29.00;99.90
12180;DHT22;6153;51.490;6.586;2022-08-03T09:07:57;29.00;99.90
12180;DHT22;6153;51.490;6.586;2022-08-03T09:10:58;29.40;99.90
12180;DHT22;6153;51.490;6.586;2022-08-03T09:13:58;29.30;99.90
12180;DHT22;6153;51.490;6.586;2022-08-03T09:17:00;29.30;99.90
12180;DHT22;6153;51.490;6.586;2022-08-03T09:20:05;29.20;99.90
12180;DHT22;6153;51.490;6.586;2022-08-03T09:23:08;29.30;99.90
12180;DHT22;6153;51.490;6.586;2022-08-03T09:26:10;29.60;99.90
12180;DHT22;6153;51.490;6.586;2022-08-03T09:29:10;29.60;99.90
12180;DHT22;6153;51.490;6.586;2022-08-03T09:32:11;29.80;99.90
12180;DHT22;6153;51.490;6.586;2022-08-03T09:35:12;29.50;99.90
12180;DHT22;6153;51.490;6.586;2022-08-03T09:38:17;29.60;99.90
12180;DHT22;6153;51.490;6.586;2022-08-03T09:41:19;29.60;99.90
12180;DHT22;6153;51.490;6.586;2022-08-03T09:44:42;29.70;99.90
12180;DHT22;6153;51.490;6.586;2022-08-03T09:47:43;29.70;99.90
12180;DHT22;6153;51.490;6.586;2022-08-03T09:50:50;30.10;99.90
12180;DHT22;6153;51.490;6.586;2022-08-03T09:53:51;30.40;99.90
12180;DHT22;6153;51.490;6.586;2022-08-03T09:56:52;30.40;99.90
12180;DHT22;6153;51.490;6.586;2022-08-03T09:59:53;30.60;99.90
12180;DHT22;6153;51.490;6.586;2022-08-03T10:03:04;30.80;99.90
12180;DHT22;6153;51.490;6.586;2022-08-03T10:06:18;30.70;99.90
12180;DHT22;6153;51.490;6.586;2022-08-03T10:09:19;31.10;99.90
12180;DHT22;6153;51.490;6.586;2022-08-03T10:12:20;30.90;99.90
12180;DHT22;6153;51.490;6.586;2022-08-03T10:15:21;31.20;99.90
12180;DHT22;6153;51.490;6.586;2022-08-03T10:18:22;31.10;99.90
12180;DHT22;6153;51.490;6.586;2022-08-03T10:21:22;31.30;99.90
12180;DHT22;6153;51.490;6.586;2022-08-03T10:24:25;31.50;99.90
12180;DHT22;6153;51.490;6.586;2022-08-03T10:27:33;31.40;99.90
12180;DHT22;6153;51.490;6.586;2022-08-03T10:30:34;31.30;99.90
12180;DHT22;6153;51.490;6.586;2022-08-03T10:33:41;30.80;99.90
12180;DHT22;6153;51.490;6.586;2022-08-03T10:36:43;31.20;99.90
12180;DHT22;6153;51.490;6.586;2022-08-03T10:39:44;31.00;99.90
12180;DHT22;6153;51.490;6.586;2022-08-03T10:42:56;31.50;99.90
12180;DHT22;6153;51.490;6.586;2022-08-03T10:45:59;31.90;99.90
12180;DHT22;6153;51.490;6.586;2022-08-03T10:49:01;32.00;99.90
12180;DHT22;6153;51.490;6.586;2022-08-03T10:52:03;32.40;99.60
12180;DHT22;6153;51.490;6.586;2022-08-03T10:55:34;32.00;99.20
12180;DHT22;6153;51.490;6.586;2022-08-03T10:58:54;32.20;99.10
12180;DHT22;6153;51.490;6.586;2022-08-03T11:01:55;32.40;98.70
12180;DHT22;6153;51.490;6.586;2022-08-03T11:05:23;32.30;98.50
12180;DHT22;6153;51.490;6.586;2022-08-03T11:11:27;32.60;97.30
12180;DHT22;6153;51.490;6.586;2022-08-03T11:14:44;32.80;96.50
12180;DHT22;6153;51.490;6.586;2022-08-03T11:18:08;32.80;96.40
12180;DHT22;6153;51.490;6.586;2022-08-03T11:21:12;32.80;96.90
12180;DHT22;6153;51.490;6.586;2022-08-03T11:27:36;33.10;96.10
12180;DHT22;6153;51.490;6.586;2022-08-03T11:30:37;33.20;96.30
12180;DHT22;6153;51.490;6.586;2022-08-03T11:33:38;33.20;94.70
12180;DHT22;6153;51.490;6.586;2022-08-03T11:40:47;33.40;94.90
12180;DHT22;6153;51.490;6.586;2022-08-03T11:43:48;33.40;94.90
12180;DHT22;6153;51.490;6.586;2022-08-03T11:46:49;33.40;94.60
12180;DHT22;6153;51.490;6.586;2022-08-03T11:49:52;33.40;94.80
12180;DHT22;6153;51.490;6.586;2022-08-03T11:52:53;33.60;94.70
12180;DHT22;6153;51.490;6.586;2022-08-03T11:55:57;33.80;93.40
12180;DHT22;6153;51.490;6.586;2022-08-03T11:58:58;33.90;92.50
12180;DHT22;6153;51.490;6.586;2022-08-03T12:02:10;33.80;92.40
12180;DHT22;6153;51.490;6.586;2022-08-03T12:05:11;33.50;91.70
12180;DHT22;6153;51.490;6.586;2022-08-03T12:08:14;33.70;93.20
12180;DHT22;6153;51.490;6.586;2022-08-03T12:11:16;33.90;92.90
12180;DHT22;6153;51.490;6.586;2022-08-03T12:14:18;34.20;92.80
12180;DHT22;6153;51.490;6.586;2022-08-03T12:17:19;34.20;91.60
12180;DHT22;6153;51.490;6.586;2022-08-03T12:20:22;34.30;91.60
12180;DHT22;6153;51.490;6.586;2022-08-03T12:23:26;34.50;91.00
12180;DHT22;6153;51.490;6.586;2022-08-03T12:26:28;34.50;91.20
12180;DHT22;6153;51.490;6.586;2022-08-03T12:29:29;34.60;91.00
12180;DHT22;6153;51.490;6.586;2022-08-03T12:32:30;34.80;90.60
12180;DHT22;6153;51.490;6.586;2022-08-03T12:35:31;34.70;91.10
12180;DHT22;6153;51.490;6.586;2022-08-03T12:38:33;34.40;90.40
12180;DHT22;6153;51.490;6.586;2022-08-03T12:41:38;34.90;90.80
12180;DHT22;6153;51.490;6.586;2022-08-03T12:44:39;34.70;90.50
12180;DHT22;6153;51.490;6.586;2022-08-03T12:50:51;34.80;90.00
12180;DHT22;6153;51.490;6.586;2022-08-03T12:53:53;35.20;90.00
12180;DHT22;6153;51.490;6.586;2022-08-03T12:57:06;35.60;87.50
12180;DHT22;6153;51.490;6.586;2022-08-03T13:00:11;35.70;86.40
12180;DHT22;6153;51.490;6.586;2022-08-03T13:03:12;35.70;85.30
12180;DHT22;6153;51.490;6.586;2022-08-03T13:06:14;35.40;82.60
12180;DHT22;6153;51.490;6.586;2022-08-03T13:09:15;34.90;84.00
12180;DHT22;6153;51.490;6.586;2022-08-03T13:12:17;34.90;83.90
12180;DHT22;6153;51.490;6.586;2022-08-03T13:15:18;35.30;81.20
12180;DHT22;6153;51.490;6.586;2022-08-03T13:18:19;35.40;81.40
12180;DHT22;6153;51.490;6.586;2022-08-03T13:21:20;35.20;81.50
12180;DHT22;6153;51.490;6.586;2022-08-03T13:24:21;35.30;81.20
12180;DHT22;6153;51.490;6.586;2022-08-03T13:27:22;35.40;79.40
12180;DHT22;6153;51.490;6.586;2022-08-03T13:30:23;35.40;80.00
12180;DHT22;6153;51.490;6.586;2022-08-03T13:33:26;35.30;78.20
12180;DHT22;6153;51.490;6.586;2022-08-03T13:36:27;35.70;78.90
12180;DHT22;6153;51.490;6.586;2022-08-03T13:39:28;35.00;78.30
12180;DHT22;6153;51.490;6.586;2022-08-03T13:42:30;34.00;78.90
12180;DHT22;6153;51.490;6.586;2022-08-03T13:45:30;33.90;78.30
12180;DHT22;6153;51.490;6.586;2022-08-03T13:48:31;34.00;79.20
12180;DHT22;6153;51.490;6.586;2022-08-03T13:51:32;34.80;79.90
12180;DHT22;6153;51.490;6.586;2022-08-03T13:54:33;33.90;78.30
12180;DHT22;6153;51.490;6.586;2022-08-03T13:57:34;33.50;81.10
12180;DHT22;6153;51.490;6.586;2022-08-03T14:00:35;33.30;81.00
12180;DHT22;6153;51.490;6.586;2022-08-03T14:03:36;32.90;80.00
12180;DHT22;6153;51.490;6.586;2022-08-03T14:06:36;33.20;79.90
12180;DHT22;6153;51.490;6.586;2022-08-03T14:09:37;34.00;79.10
12180;DHT22;6153;51.490;6.586;2022-08-03T14:12:38;34.10;80.30
12180;DHT22;6153;51.490;6.586;2022-08-03T14:15:38;34.10;77.20
12180;DHT22;6153;51.490;6.586;2022-08-03T14:18:40;34.60;77.40
12180;DHT22;6153;51.490;6.586;2022-08-03T14:21:41;34.60;78.60
12180;DHT22;6153;51.490;6.586;2022-08-03T14:24:42;34.10;79.70
12180;DHT22;6153;51.490;6.586;2022-08-03T14:27:42;33.60;81.10
12180;DHT22;6153;51.490;6.586;2022-08-03T14:30:43;33.20;80.90
12180;DHT22;6153;51.490;6.586;2022-08-03T14:33:44;33.10;80.40
12180;DHT22;6153;51.490;6.586;2022-08-03T14:36:44;33.10;79.80
12180;DHT22;6153;51.490;6.586;2022-08-03T14:39:46;33.10;80.30
12180;DHT22;6153;51.490;6.586;2022-08-03T14:42:48;32.80;79.20
12180;DHT22;6153;51.490;6.586;2022-08-03T14:45:52;33.10;80.30
12180;DHT22;6153;51.490;6.586;2022-08-03T14:48:52;33.50;80.70
12180;DHT22;6153;51.490;6.586;2022-08-03T14:51:53;33.60;79.90
12180;DHT22;6153;51.490;6.586;2022-08-03T14:54:54;33.60;81.20
12180;DHT22;6153;51.490;6.586;2022-08-03T14:57:54;33.00;80.30
12180;DHT22;6153;51.490;6.586;2022-08-03T15:00:55;32.90;81.40
12180;DHT22;6153;51.490;6.586;2022-08-03T15:03:56;33.10;80.30
12180;DHT22;6153;51.490;6.586;2022-08-03T15:06:57;33.30;82.10
12180;DHT22;6153;51.490;6.586;2022-08-03T15:09:57;33.00;79.90
12180;DHT22;6153;51.490;6.586;2022-08-03T15:12:58;33.00;79.80
12180;DHT22;6153;51.490;6.586;2022-08-03T15:15:59;32.90;80.40
12180;DHT22;6153;51.490;6.586;2022-08-03T15:19:00;33.80;79.00
12180;DHT22;6153;51.490;6.586;2022-08-03T15:22:00;33.40;79.90
12180;DHT22;6153;51.490;6.586;2022-08-03T15:25:02;34.00;80.10
12180;DHT22;6153;51.490;6.586;2022-08-03T15:28:03;34.60;79.20
12180;DHT22;6153;51.490;6.586;2022-08-03T15:31:04;34.50;78.90
12180;DHT22;6153;51.490;6.586;2022-08-03T15:34:06;34.30;79.80
12180;DHT22;6153;51.490;6.586;2022-08-03T15:37:06;34.50;80.30
12180;DHT22;6153;51.490;6.586;2022-08-03T15:40:07;33.30;80.40
12180;DHT22;6153;51.490;6.586;2022-08-03T15:43:08;33.10;80.20
12180;DHT22;6153;51.490;6.586;2022-08-03T15:46:09;33.60;80.10
12180;DHT22;6153;51.490;6.586;2022-08-03T15:49:10;33.90;80.70
12180;DHT22;6153;51.490;6.586;2022-08-03T15:52:10;34.10;80.80
12180;DHT22;6153;51.490;6.586;2022-08-03T15:55:11;33.70;81.60
12180;DHT22;6153;51.490;6.586;2022-08-03T15:58:12;34.10;81.60
12180;DHT22;6153;51.490;6.586;2022-08-03T16:01:13;34.20;80.60
12180;DHT22;6153;51.490;6.586;2022-08-03T16:04:14;35.20;81.30
12180;DHT22;6153;51.490;6.586;2022-08-03T16:07:15;36.60;77.60
12180;DHT22;6153;51.490;6.586;2022-08-03T16:10:35;37.20;75.70
12180;DHT22;6153;51.490;6.586;2022-08-03T16:13:36;36.80;75.10
12180;DHT22;6153;51.490;6.586;2022-08-03T16:16:37;37.00;75.10
12180;DHT22;6153;51.490;6.586;2022-08-03T16:19:40;36.80;75.50
12180;DHT22;6153;51.490;6.586;2022-08-03T16:22:46;37.80;75.90
12180;DHT22;6153;51.490;6.586;2022-08-03T16:25:47;38.50;75.00
12180;DHT22;6153;51.490;6.586;2022-08-03T16:28:47;38.80;74.30
12180;DHT22;6153;51.490;6.586;2022-08-03T16:31:48;38.90;73.50
12180;DHT22;6153;51.490;6.586;2022-08-03T16:34:48;38.70;73.20
12180;DHT22;6153;51.490;6.586;2022-08-03T16:37:49;38.90;73.20
12180;DHT22;6153;51.490;6.586;2022-08-03T16:40:50;39.20;73.10
12180;DHT22;6153;51.490;6.586;2022-08-03T16:43:51;37.60;71.90
12180;DHT22;6153;51.490;6.586;2022-08-03T16:46:52;37.30;72.70
12180;DHT22;6153;51.490;6.586;2022-08-03T16:49:52;36.90;73.80
12180;DHT22;6153;51.490;6.586;2022-08-03T16:52:53;37.30;73.40
12180;DHT22;6153;51.490;6.586;2022-08-03T16:55:53;37.30;73.70
12180;DHT22;6153;51.490;6.586;2022-08-03T16:58:54;37.30;72.50
12180;DHT22;6153;51.490;6.586;2022-08-03T17:01:55;36.60;73.50
12180;DHT22;6153;51.490;6.586;2022-08-03T17:04:56;36.60;74.20
12180;DHT22;6153;51.490;6.586;2022-08-03T17:07:57;36.70;73.60
12180;DHT22;6153;51.490;6.586;2022-08-03T17:10:59;37.00;73.00
12180;DHT22;6153;51.490;6.586;2022-08-03T17:13:59;36.90;74.70
12180;DHT22;6153;51.490;6.586;2022-08-03T17:17:03;37.50;72.70
12180;DHT22;6153;51.490;6.586;2022-08-03T17:20:09;36.90;71.90
12180;DHT22;6153;51.490;6.586;2022-08-03T17:26:31;36.30;73.50
12180;DHT22;6153;51.490;6.586;2022-08-03T17:29:35;37.10;73.30
12180;DHT22;6153;51.490;6.586;2022-08-03T17:32:40;37.90;71.70
12180;DHT22;6153;51.490;6.586;2022-08-03T17:35:41;36.90;73.20
12180;DHT22;6153;51.490;6.586;2022-08-03T17:38:42;36.70;73.70
12180;DHT22;6153;51.490;6.586;2022-08-03T17:41:43;36.90;73.20
12180;DHT22;6153;51.490;6.586;2022-08-03T17:44:45;36.80;72.80
12180;DHT22;6153;51.490;6.586;2022-08-03T17:47:46;36.80;73.00
12180;DHT22;6153;51.490;6.586;2022-08-03T17:50:54;35.70;73.70
12180;DHT22;6153;51.490;6.586;2022-08-03T17:57:41;34.90;74.10
12180;DHT22;6153;51.490;6.586;2022-08-03T18:00:43;35.30;73.70
12180;DHT22;6153;51.490;6.586;2022-08-03T18:04:05;35.60;74.30
12180;DHT22;6153;51.490;6.586;2022-08-03T18:07:08;36.00;74.40
12180;DHT22;6153;51.490;6.586;2022-08-03T18:10:15;35.70;74.10
12180;DHT22;6153;51.490;6.586;2022-08-03T18:13:29;34.20;75.70
12180;DHT22;6153;51.490;6.586;2022-08-03T18:16:37;33.80;76.30
12180;DHT22;6153;51.490;6.586;2022-08-03T18:19:37;34.30;76.70
12180;DHT22;6153;51.490;6.586;2022-08-03T18:22:38;34.30;76.40
12180;DHT22;6153;51.490;6.586;2022-08-03T18:25:44;34.00;76.90
12180;DHT22;6153;51.490;6.586;2022-08-03T18:28:47;33.70;78.60
12180;DHT22;6153;51.490;6.586;2022-08-03T18:31:48;33.10;79.20
12180;DHT22;6153;51.490;6.586;2022-08-03T18:34:54;32.40;81.10
12180;DHT22;6153;51.490;6.586;2022-08-03T18:37:55;32.10;82.20
12180;DHT22;6153;51.490;6.586;2022-08-03T18:40:57;31.50;83.30
12180;DHT22;6153;51.490;6.586;2022-08-03T18:43:57;31.30;84.30
12180;DHT22;6153;51.490;6.586;2022-08-03T18:53:36;31.80;84.00
12180;DHT22;6153;51.490;6.586;2022-08-03T18:56:45;31.80;84.30
12180;DHT22;6153;51.490;6.586;2022-08-03T18:59:53;31.00;86.10
12180;DHT22;6153;51.490;6.586;2022-08-03T19:03:00;30.50;87.60
12180;DHT22;6153;51.490;6.586;2022-08-03T19:06:05;30.20;88.60
12180;DHT22;6153;51.490;6.586;2022-08-03T19:09:06;30.00;89.30
12180;DHT22;6153;51.490;6.586;2022-08-03T19:12:18;29.80;90.20
12180;DHT22;6153;51.490;6.586;2022-08-03T19:15:22;29.60;90.30
12180;DHT22;6153;51.490;6.586;2022-08-03T19:18:25;29.50;90.70
12180;DHT22;6153;51.490;6.586;2022-08-03T19:21:27;29.30;91.40
12180;DHT22;6153;51.490;6.586;2022-08-03T19:24:29;29.20;91.50
12180;DHT22;6153;51.490;6.586;2022-08-03T19:34:49;28.70;92.30
12180;DHT22;6153;51.490;6.586;2022-08-03T19:37:50;28.60;92.70
12180;DHT22;6153;51.490;6.586;2022-08-03T19:40:52;28.50;92.90
12180;DHT22;6153;51.490;6.586;2022-08-03T19:43:55;28.40;93.30
12180;DHT22;6153;51.490;6.586;2022-08-03T19:47:00;28.30;93.60
12180;DHT22;6153;51.490;6.586;2022-08-03T19:50:05;28.30;93.70
12180;DHT22;6153;51.490;6.586;2022-08-03T19:53:07;28.20;94.00
12180;DHT22;6153;51.490;6.586;2022-08-03T19:56:08;28.10;94.10
12180;DHT22;6153;51.490;6.586;2022-08-03T19:59:12;28.00;94.50
12180;DHT22;6153;51.490;6.586;2022-08-03T20:02:13;28.00;94.70
12180;DHT22;6153;51.490;6.586;2022-08-03T20:05:13;27.90;95.20
12180;DHT22;6153;51.490;6.586;2022-08-03T20:08:14;27.80;95.20
12180;DHT22;6153;51.490;6.586;2022-08-03T20:11:17;27.70;95.60
12180;DHT22;6153;51.490;6.586;2022-08-03T20:14:18;27.70;96.00
12180;DHT22;6153;51.490;6.586;2022-08-03T20:17:18;27.60;96.50
12180;DHT22;6153;51.490;6.586;2022-08-03T20:20:20;27.50;96.70
12180;DHT22;6153;51.490;6.586;2022-08-03T20:23:21;27.40;97.10